Time;durP1;ratioP1;P1;durP2;ratioP2;P2;SDS_P1;SDS_P2;PMS_P1;PMS_P2;Temp;Humidity;BMP_temperature;BMP_pressure;BME280_temperature;BME280_humidity;BME280_pressure;Samples;Min_cycle;Max_cycle;Signal;HPM_P1;HPM_P2
2022/09/11 00:03:28;;;;;;;12.80;6.90;;;;;;;16.34;90.94;100144.45;3521910;81;98837;-85
2022/09/11 00:08:30;;;;;;;9.55;5.90;;;;;;;16.34;90.92;100147.81;3531950;82;99272;-89
2022/09/11 00:13:32;;;;;;;11.35;6.03;;;;;;;16.33;90.81;100151.80;3552457;81;98923;-90
2022/09/11 00:18:37;;;;;;;10.93;6.20;;;;;;;16.18;90.73;100129.66;3547969;81;99172;-89
2022/09/11 00:23:38;;;;;;;11.53;5.70;;;;;;;16.18;90.73;100129.66;3545761;81;99130;-89
2022/09/11 00:28:39;;;;;;;13.03;5.80;;;;;;;16.30;90.96;100141.56;3537939;81;99166;-90
2022/09/11 00:33:41;;;;;;;12.20;6.28;;;;;;;16.28;90.96;100143.36;3539707;81;99653;-89
2022/09/11 00:38:42;;;;;;;10.23;6.20;;;;;;;16.27;90.99;100140.41;3550182;81;98918;-89
2022/09/11 00:44:03;;;;;;;13.08;6.67;;;;;;;16.27;91.08;100138.22;3543577;81;99007;-89
2022/09/11 00:49:22;;;;;;;10.35;5.95;;;;;;;16.25;91.12;100141.41;3553754;81;98960;-89
2022/09/11 00:54:33;;;;;;;10.63;6.00;;;;;;;16.25;91.14;100139.26;3550539;81;99161;-89
2022/09/11 00:59:36;;;;;;;12.27;5.97;;;;;;;16.24;91.10;100145.41;3557769;81;99019;-89
2022/09/11 01:04:37;;;;;;;9.93;5.57;;;;;;;16.23;91.12;100134.71;3508037;81;99088;-89
2022/09/11 01:09:38;;;;;;;12.13;6.93;;;;;;;16.20;91.25;100136.38;3498417;82;98990;-89
2022/09/11 01:15:03;;;;;;;15.13;7.10;;;;;;;16.19;91.18;100135.39;3508290;82;99040;-89
2022/09/11 01:20:47;;;;;;;11.80;6.58;;;;;;;16.17;91.54;100135.02;3511166;82;99032;-89
2022/09/11 01:26:27;;;;;;;10.78;6.78;;;;;;;16.11;91.43;100136.11;3515449;82;99445;-88
2022/09/11 01:31:35;;;;;;;11.68;6.78;;;;;;;16.10;91.46;100128.20;3489616;82;99185;-88
2022/09/11 01:36:44;;;;;;;12.90;7.60;;;;;;;16.10;91.53;100126.22;3502668;82;99096;-88
2022/09/11 01:41:52;;;;;;;15.00;8.37;;;;;;;16.09;91.64;100130.17;3501458;82;99157;-89
2022/09/11 01:46:53;;;;;;;15.43;8.08;;;;;;;16.08;91.66;100128.61;3508040;82;99240;-87
2022/09/11 01:52:02;;;;;;;15.32;8.90;;;;;;;16.08;91.65;100132.77;3504617;82;99732;-90
2022/09/11 01:57:09;;;;;;;21.48;9.30;;;;;;;16.07;91.79;100133.98;3505097;82;99183;-88
2022/09/11 02:02:13;;;;;;;20.52;9.80;;;;;;;16.06;91.77;100130.23;3516851;82;99330;-89
2022/09/11 02:07:22;;;;;;;15.98;9.70;;;;;;;16.06;92.04;100122.70;3544547;82;99258;-88
2022/09/11 02:12:28;;;;;;;18.57;9.10;;;;;;;16.06;92.01;100129.64;3543265;81;99207;-88
2022/09/11 02:17:42;;;;;;;;;;;;;;;16.04;92.17;100114.02;3540782;81;99114;-88
2022/09/11 02:22:43;;;;;;;16.90;9.88;;;;;;;16.04;92.88;100119.58;3546177;81;85180;-89
2022/09/11 02:27:45;;;;;;;17.93;10.80;;;;;;;16.02;92.03;100126.13;3539615;81;98951;-88
2022/09/11 02:32:46;;;;;;;19.10;10.80;;;;;;;16.03;92.25;100124.92;3551919;80;99258;-89
2022/09/11 02:38:07;;;;;;;17.60;10.72;;;;;;;16.00;92.30;100118.84;3549998;81;99229;-88
2022/09/11 02:43:22;;;;;;;19.32;11.48;;;;;;;16.00;92.30;100108.33;3559338;81;99204;-89
2022/09/11 02:48:35;;;;;;;17.90;11.37;;;;;;;15.98;92.29;100101.80;3546590;80;99319;-89
2022/09/11 02:54:04;;;;;;;21.20;11.90;;;;;;;15.97;92.40;100109.95;3540141;81;99595;-88
2022/09/11 02:59:10;;;;;;;18.60;11.68;;;;;;;15.95;92.21;100115.73;3530591;81;99390;-89
2022/09/11 03:04:11;;;;;;;18.10;10.75;;;;;;;15.92;92.37;100113.20;3515251;81;99317;-89
2022/09/11 03:09:12;;;;;;;23.57;14.00;;;;;;;15.91;92.39;100107.47;3514964;81;99830;-89
2022/09/11 03:14:13;;;;;;;18.73;12.00;;;;;;;15.90;92.57;100109.27;3553703;81;99183;-89
2022/09/11 03:19:14;;;;;;;29.90;16.83;;;;;;;15.86;92.77;100101.00;3543280;81;99300;-89
2022/09/11 03:24:16;;;;;;;29.20;16.20;;;;;;;15.85;93.62;100100.03;3538225;81;99193;-88
2022/09/11 03:29:17;;;;;;;26.30;15.90;;;;;;;15.80;93.54;100090.82;3531826;81;99189;-89
2022/09/11 03:34:18;;;;;;;23.73;15.23;;;;;;;15.81;93.52;100091.00;3520213;82;99288;-89
2022/09/11 03:39:19;;;;;;;32.63;17.50;;;;;;;15.82;93.41;100091.17;3538459;81;99231;-89
2022/09/11 03:44:20;;;;;;;31.83;18.77;;;;;;;15.81;93.53;100091.77;3542173;81;99310;-89
2022/09/11 03:49:21;;;;;;;34.00;18.27;;;;;;;15.84;93.65;100092.33;3547449;81;99394;-89
2022/09/11 03:54:22;;;;;;;38.10;22.07;;;;;;;15.86;93.50;100085.74;3546726;81;99368;-89
2022/09/11 03:59:24;;;;;;;33.67;19.55;;;;;;;15.86;93.55;100091.91;3544104;81;99329;-88
2022/09/11 04:04:24;;;;;;;34.63;19.23;;;;;;;15.88;93.61;100105.55;3561634;81;99434;-89
2022/09/11 04:09:26;;;;;;;30.67;18.37;;;;;;;15.89;93.62;100095.22;3541987;81;99248;-89
2022/09/11 04:14:27;;;;;;;31.50;17.77;;;;;;;15.90;93.59;100098.17;3553326;81;99286;-85
2022/09/11 04:19:28;;;;;;;30.75;18.32;;;;;;;15.88;93.45;100093.66;3563136;81;99441;-88
2022/09/11 04:24:29;;;;;;;29.45;16.30;;;;;;;15.91;93.52;100101.16;3558573;81;99438;-89
2022/09/11 04:29:31;;;;;;;25.77;15.50;;;;;;;15.91;93.44;100106.70;3528538;81;99345;-88
2022/09/11 04:34:32;;;;;;;22.00;13.90;;;;;;;15.90;93.56;100107.30;3545347;81;99986;-88
2022/09/11 04:39:34;;;;;;;23.27;14.40;;;;;;;15.90;93.46;100103.12;3552893;81;99347;-89
2022/09/11 04:44:36;;;;;;;26.35;14.33;;;;;;;15.90;93.54;100105.11;3544714;81;99298;-89
2022/09/11 04:49:37;;;;;;;21.27;13.20;;;;;;;15.89;93.53;100106.32;3517628;81;99356;-89
2022/09/11 04:54:38;;;;;;;23.13;14.30;;;;;;;15.88;93.51;100106.94;3564944;81;99328;-88
2022/09/11 04:59:39;;;;;;;22.70;13.13;;;;;;;15.87;93.72;100100.41;3548985;81;99311;-88
2022/09/11 05:04:40;;;;;;;22.10;14.13;;;;;;;15.88;93.62;100105.55;3560402;81;99815;-89
2022/09/11 05:09:41;;;;;;;22.27;14.87;;;;;;;15.87;93.72;100104.58;3555049;81;99373;-88
2022/09/11 05:14:42;;;;;;;21.67;13.33;;;;;;;15.88;94.03;100111.69;3556724;81;99287;-88
2022/09/11 05:19:44;;;;;;;23.43;14.17;;;;;;;15.88;94.15;100112.49;3575127;81;99198;-88
2022/09/11 05:24:44;;;;;;;22.30;14.43;;;;;;;15.89;94.36;100114.05;3577573;81;99623;-89
2022/09/11 05:29:45;;;;;;;22.60;13.83;;;;;;;15.89;94.64;100117.42;3573997;81;99347;-89
2022/09/11 05:34:46;;;;;;;22.90;13.73;;;;;;;15.90;94.38;100118.98;3573641;81;99258;-88
2022/09/11 05:39:47;;;;;;;20.72;13.28;;;;;;;15.93;94.67;100112.61;3558732;81;99410;-89
2022/09/11 05:44:48;;;;;;;23.20;13.15;;;;;;;15.96;94.75;100127.05;3563977;80;99169;-87
2022/09/11 05:49:49;;;;;;;21.45;12.60;;;;;;;15.96;94.89;100126.42;3571717;80;99570;-86
2022/09/11 05:54:51;;;;;;;18.27;11.63;;;;;;;15.97;95.27;100125.84;3553573;81;99382;-87
2022/09/11 05:59:52;;;;;;;17.98;11.22;;;;;;;15.98;95.07;100128.17;3556244;81;99262;-87
2022/09/11 06:04:53;;;;;;;16.17;10.78;;;;;;;16.00;94.98;100127.75;3568874;81;99402;-88
2022/09/11 06:09:54;;;;;;;16.73;10.80;;;;;;;16.01;94.78;100132.89;3547524;81;99367;-88
2022/09/11 06:14:55;;;;;;;17.10;10.23;;;;;;;16.05;94.54;100141.16;3560733;82;99372;-88
2022/09/11 06:19:56;;;;;;;16.85;10.88;;;;;;;16.06;94.67;100146.89;3529683;81;99310;-89
2022/09/11 06:24:57;;;;;;;13.58;8.93;;;;;;;16.04;94.81;100147.34;3556943;81;99273;-88
2022/09/11 06:29:58;;;;;;;14.60;8.20;;;;;;;16.06;94.60;100147.69;3561583;81;100452;-88
2022/09/11 06:34:59;;;;;;;13.05;8.78;;;;;;;16.09;94.77;100159.95;3564225;81;99347;-88
2022/09/11 06:40:01;;;;;;;13.72;9.18;;;;;;;16.09;94.73;100166.27;3560034;81;99070;-87
2022/09/11 06:45:02;;;;;;;15.95;10.43;;;;;;;16.11;94.81;100174.98;3555166;81;99010;-88
2022/09/11 06:50:03;;;;;;;15.05;8.80;;;;;;;16.14;94.75;100174.74;3559836;81;99164;-87
2022/09/11 06:55:06;;;;;;;13.43;9.13;;;;;;;16.13;94.79;100176.72;3561513;81;98860;-87
2022/09/11 07:00:09;;;;;;;11.10;7.47;;;;;;;16.15;94.61;100183.25;3546194;81;98744;-89
2022/09/11 07:05:10;;;;;;;12.90;8.48;;;;;;;16.18;94.66;100168.53;3561048;82;99168;-88
2022/09/11 07:10:11;;;;;;;13.15;8.38;;;;;;;16.21;94.41;100171.25;3558845;81;99031;-89
2022/09/11 07:15:13;;;;;;;17.00;9.83;;;;;;;16.27;94.49;100176.52;3569158;81;98742;-89
2022/09/11 07:20:16;;;;;;;16.83;9.77;;;;;;;16.31;94.19;100171.69;3579346;81;99055;-89
2022/09/11 07:25:17;;;;;;;11.22;7.33;;;;;;;16.37;94.19;100183.09;3578652;81;99112;-89
2022/09/11 07:30:19;;;;;;;10.67;7.27;;;;;;;16.41;94.29;100183.23;3575599;81;99264;-87
2022/09/11 07:35:20;;;;;;;11.33;7.55;;;;;;;16.41;94.19;100190.18;3567753;81;99029;-88
2022/09/11 07:40:21;;;;;;;11.60;6.90;;;;;;;16.45;94.04;100190.91;3576933;81;99137;-88
2022/09/11 07:45:22;;;;;;;12.30;8.35;;;;;;;16.50;93.84;100197.97;3562788;81;98963;-88
2022/09/11 07:50:23;;;;;;;12.90;8.83;;;;;;;16.57;93.89;100204.20;3568341;81;99147;-88
2022/09/11 07:55:24;;;;;;;13.05;7.97;;;;;;;16.62;93.72;100198.79;3570791;81;99033;-88
2022/09/11 08:00:25;;;;;;;12.27;9.20;;;;;;;16.68;93.65;100201.26;3569915;80;99214;-88
2022/09/11 08:05:26;;;;;;;13.10;8.68;;;;;;;16.77;93.67;100206.45;3569186;81;99040;-88
2022/09/11 08:10:27;;;;;;;13.72;8.65;;;;;;;16.89;93.68;100204.44;3564578;81;99049;-84
2022/09/11 08:15:28;;;;;;;13.28;7.62;;;;;;;17.04;93.93;100208.53;3559696;80;99700;-87
2022/09/11 08:20:30;;;;;;;14.25;7.35;;;;;;;17.28;94.22;100212.06;3564630;81;99185;-86
2022/09/11 08:25:36;;;;;;;11.55;6.00;;;;;;;17.58;94.24;100215.44;3569132;81;99841;-87
2022/09/11 08:30:37;;;;;;;;;;;;;;;17.97;93.53;100214.59;3571900;81;99162;-87
2022/09/11 08:35:38;;;;;;;9.10;5.78;;;;;;;18.21;90.93;100218.83;3567966;82;85096;-87
2022/09/11 08:40:39;;;;;;;13.88;6.80;;;;;;;18.61;90.04;100222.45;3555813;81;98824;-88
2022/09/11 08:45:41;;;;;;;11.43;6.00;;;;;;;18.61;90.04;100222.45;3545578;81;99077;-86
2022/09/11 08:50:43;;;;;;;8.95;5.12;;;;;;;18.69;88.18;100232.20;3553344;81;99015;-86
2022/09/11 08:55:58;;;;;;;8.05;4.53;;;;;;;18.88;87.72;100231.92;3573018;81;98877;-86
2022/09/11 09:01:25;;;;;;;8.33;4.67;;;;;;;18.90;85.94;100244.81;3568475;82;99025;-85
2022/09/11 09:06:47;;;;;;;8.00;3.90;;;;;;;19.07;85.63;100244.36;3536190;81;99012;-88
2022/09/11 09:12:14;;;;;;;7.72;4.20;;;;;;;19.30;85.61;100239.20;3571388;80;99035;-87
2022/09/11 09:17:30;;;;;;;7.30;3.95;;;;;;;19.55;84.65;100247.05;3553423;80;98936;-87
2022/09/11 09:22:45;;;;;;;8.80;4.60;;;;;;;19.71;83.75;100247.59;3551278;81;99315;-86
2022/09/11 09:28:07;;;;;;;8.77;4.30;;;;;;;19.88;83.26;100249.88;3549305;81;98874;-84
2022/09/11 09:33:56;;;;;;;11.30;4.78;;;;;;;19.98;82.41;100252.18;3546423;82;98786;-87
2022/09/11 09:38:57;;;;;;;9.28;4.65;;;;;;;20.09;81.43;100254.87;3564811;80;98953;-86
2022/09/11 09:44:38;;;;;;;9.38;4.65;;;;;;;20.04;80.31;100265.16;3562987;80;98878;-86
2022/09/11 09:49:41;;;;;;;8.50;4.92;;;;;;;20.02;79.89;100260.64;3552202;81;99136;-86
2022/09/11 09:54:48;;;;;;;9.00;4.67;;;;;;;20.12;79.86;100265.77;3539247;81;107201;-87
2022/09/11 10:00:10;;;;;;;13.15;4.78;;;;;;;20.20;79.21;100274.09;3554703;82;99121;-85
2022/09/11 10:05:22;;;;;;;7.90;4.08;;;;;;;20.24;78.75;100270.58;3543533;81;99985;-87
2022/09/11 10:10:37;;;;;;;9.20;4.70;;;;;;;20.32;78.49;100267.12;3516783;82;98955;-87
2022/09/11 10:15:39;;;;;;;8.40;4.37;;;;;;;20.38;77.99;100272.95;3537158;82;98891;-86
2022/09/11 10:20:40;;;;;;;10.40;5.60;;;;;;;20.53;78.13;100276.23;3515691;82;98987;-87
2022/09/11 10:25:46;;;;;;;6.95;3.77;;;;;;;20.99;78.66;100276.93;3529995;82;99019;-88
2022/09/11 10:30:57;;;;;;;8.23;4.35;;;;;;;21.48;77.73;100276.61;3531284;82;98904;-87
2022/09/11 10:36:02;;;;;;;6.65;3.75;;;;;;;21.95;77.18;100275.91;3537155;81;98920;-87
2022/09/11 10:41:17;;;;;;;8.13;3.77;;;;;;;22.33;75.45;100287.64;3531355;82;99034;-86
2022/09/11 10:46:32;;;;;;;9.65;4.17;;;;;;;22.51;73.23;100282.78;3521137;82;98924;-86
2022/09/11 10:51:39;;;;;;;7.80;4.07;;;;;;;22.65;72.99;100284.39;3524486;82;99044;-87
2022/09/11 10:57:04;;;;;;;7.97;3.92;;;;;;;22.80;72.38;100291.61;3523220;82;98969;-87
2022/09/11 11:02:11;;;;;;;7.73;4.07;;;;;;;22.92;71.39;100287.89;3472222;82;98846;-88
2022/09/11 11:07:29;;;;;;;6.95;4.30;;;;;;;22.82;70.20;100285.69;3543868;82;98898;-87
2022/09/11 11:12:56;;;;;;;9.20;4.60;;;;;;;22.83;70.38;100289.29;3574531;81;98861;-86
2022/09/11 11:18:14;;;;;;;8.00;4.30;;;;;;;22.89;70.06;100294.45;3563218;81;98829;-86
2022/09/11 11:23:50;;;;;;;8.10;3.95;;;;;;;22.96;69.77;100287.13;3567746;81;99154;-85
2022/09/11 11:29:04;;;;;;;;;;;;;;;23.00;69.52;100295.55;3558666;81;99030;-85
2022/09/11 11:34:16;;;;;;;8.05;4.60;;;;;;;22.86;66.66;100302.38;3553521;81;85063;-86
2022/09/11 11:39:44;;;;;;;7.67;4.33;;;;;;;22.61;68.31;100296.37;3553392;81;98724;-85
2022/09/11 11:44:50;;;;;;;10.25;4.45;;;;;;;22.45;68.44;100304.26;3564492;81;98884;-86
2022/09/11 11:49:59;;;;;;;7.08;4.03;;;;;;;22.36;68.37;100306.37;3559116;80;99070;-86
2022/09/11 11:55:06;;;;;;;7.83;4.42;;;;;;;22.17;68.33;100310.30;3556878;81;98990;-86
2022/09/11 12:00:14;;;;;;;7.58;4.40;;;;;;;21.99;68.57;100314.39;3564716;80;98871;-86
2022/09/11 12:05:23;;;;;;;9.25;5.03;;;;;;;21.79;68.70;100322.34;3572808;81;98904;-86
2022/09/11 12:10:37;;;;;;;9.95;4.67;;;;;;;21.59;68.82;100316.85;3571287;81;98943;-85
2022/09/11 12:15:38;;;;;;;10.38;4.75;;;;;;;21.35;69.14;100319.89;3571624;81;98957;-84
2022/09/11 12:20:42;;;;;;;8.37;4.33;;;;;;;21.05;69.48;100330.33;3551738;82;104793;-86
2022/09/11 12:26:11;;;;;;;8.53;4.33;;;;;;;20.78;69.88;100332.17;3569203;81;99095;-86
2022/09/11 12:31:15;;;;;;;6.28;3.60;;;;;;;20.54;70.34;100336.52;3565475;81;99294;-86
2022/09/11 12:36:32;;;;;;;9.03;4.75;;;;;;;20.27;70.77;100336.15;3575690;80;98865;-86
2022/09/11 12:41:36;;;;;;;7.65;4.40;;;;;;;20.09;70.88;100340.69;3577938;80;99082;-85
2022/09/11 12:46:48;;;;;;;10.50;5.40;;;;;;;19.89;71.24;100349.20;3577760;80;101248;-85
2022/09/11 12:51:59;;;;;;;10.28;5.45;;;;;;;19.66;71.84;100344.47;3579852;80;99527;-86
2022/09/11 12:57:07;;;;;;;10.18;5.70;;;;;;;19.46;72.60;100339.64;3576335;80;99064;-87
2022/09/11 13:02:26;;;;;;;10.38;6.22;;;;;;;19.31;73.26;100340.62;3548703;81;99173;-87
2022/09/11 13:07:45;;;;;;;9.73;5.80;;;;;;;19.21;73.98;100337.50;3498478;82;99042;-86
2022/09/11 13:12:52;;;;;;;9.60;4.83;;;;;;;19.15;74.57;100351.77;3530823;81;98889;-86
2022/09/11 13:17:55;;;;;;;8.48;4.62;;;;;;;19.09;74.88;100343.75;3501191;82;98894;-86
2022/09/11 13:23:01;;;;;;;9.03;4.70;;;;;;;19.07;75.72;100339.83;3535875;81;98850;-86
2022/09/11 13:28:05;;;;;;;10.38;5.72;;;;;;;19.08;76.08;100340.77;3533059;81;98789;-88
2022/09/11 13:33:11;;;;;;;10.90;5.58;;;;;;;19.19;76.84;100330.75;3543153;81;99124;-85
2022/09/11 13:38:22;;;;;;;9.87;5.40;;;;;;;19.32;77.43;100333.82;3539966;81;99258;-85
2022/09/11 13:43:28;;;;;;;10.60;6.15;;;;;;;19.45;77.18;100322.73;3555285;81;98888;-86
2022/09/11 13:48:29;;;;;;;;;;;;;;;19.58;76.87;100329.94;3540794;82;98948;-86
2022/09/11 13:53:32;;;;;;;9.53;5.58;;;;;;;19.75;76.69;100329.27;3553837;81;85091;-86
2022/09/11 13:58:38;;;;;;;8.50;4.60;;;;;;;19.91;76.80;100320.23;3552754;81;98947;-86
2022/09/11 14:03:38;;;;;;;9.70;5.60;;;;;;;20.09;76.34;100323.92;3545761;81;98866;-87
2022/09/11 14:08:45;;;;;;;8.60;5.20;;;;;;;20.19;76.12;100327.02;3561137;81;99530;-86
2022/09/11 14:13:55;;;;;;;8.37;4.60;;;;;;;20.32;75.88;100334.83;3555096;81;98863;-87
2022/09/11 14:19:20;;;;;;;10.18;5.08;;;;;;;20.49;76.23;100323.09;3547553;81;98763;-87
2022/09/11 14:24:35;;;;;;;8.25;4.30;;;;;;;20.66;76.06;100324.55;3546546;81;99170;-87
2022/09/11 14:29:36;;;;;;;8.88;4.67;;;;;;;20.83;75.74;100328.81;3532837;80;98959;-87
2022/09/11 14:34:37;;;;;;;9.08;4.30;;;;;;;20.95;75.27;100326.65;3556070;81;99022;-88
2022/09/11 14:39:46;;;;;;;5.97;3.35;;;;;;;21.05;74.67;100331.73;3553533;81;98841;-87
2022/09/11 14:44:47;;;;;;;6.42;3.47;;;;;;;21.04;73.78;100328.13;3554092;80;98988;-87
2022/09/11 14:49:52;;;;;;;7.00;3.50;;;;;;;21.08;73.46;100337.20;3550923;81;99422;-88
2022/09/11 14:54:55;;;;;;;6.78;4.03;;;;;;;21.13;73.00;100332.44;3539123;81;99011;-87
2022/09/11 14:59:58;;;;;;;5.17;3.02;;;;;;;21.18;72.89;100333.88;3564277;81;98969;-87
2022/09/11 15:04:59;;;;;;;7.60;3.65;;;;;;;21.17;72.78;100335.91;3563565;80;98980;-88
2022/09/11 15:10:00;;;;;;;5.92;3.05;;;;;;;21.14;72.53;100334.63;3542035;81;98883;-87
2022/09/11 15:15:02;;;;;;;6.25;3.30;;;;;;;21.05;72.01;100341.52;3537113;81;98793;-87
2022/09/11 15:20:07;;;;;;;7.72;3.55;;;;;;;20.92;71.79;100338.73;3534647;81;99134;-87
2022/09/11 15:25:08;;;;;;;7.67;3.60;;;;;;;20.84;71.92;100344.37;3515008;81;99110;-87
2022/09/11 15:30:10;;;;;;;7.10;3.35;;;;;;;20.76;71.92;100345.04;3529262;82;98831;-86
2022/09/11 15:35:11;;;;;;;7.58;3.17;;;;;;;20.62;72.06;100346.88;3529957;81;98857;-87
2022/09/11 15:40:14;;;;;;;7.40;3.83;;;;;;;20.45;72.29;100350.39;3526193;82;98917;-87
2022/09/11 15:45:17;;;;;;;6.90;3.20;;;;;;;20.33;72.16;100353.16;3524551;81;98827;-86
2022/09/11 15:50:23;;;;;;;5.75;2.77;;;;;;;20.22;72.23;100354.86;3531607;81;98913;-86
2022/09/11 15:55:21;;;;;;;6.35;3.40;;;;;;;20.08;72.33;100361.48;3525372;82;98801;-86
2022/09/11 16:00:22;;;;;;;6.42;3.10;;;;;;;19.97;72.46;100364.55;3534005;81;98937;-86
2022/09/11 16:05:23;;;;;;;8.43;3.27;;;;;;;19.85;72.29;100369.48;3535116;81;98905;-85
2022/09/11 16:10:24;;;;;;;5.90;2.70;;;;;;;19.78;72.31;100364.08;3554067;82;98969;-86
2022/09/11 16:15:25;;;;;;;5.10;2.58;;;;;;;19.59;72.48;100366.41;3574213;81;98995;-86
2022/09/11 16:20:26;;;;;;;5.67;2.80;;;;;;;19.47;72.72;100369.13;3565252;81;99395;-86
2022/09/11 16:25:27;;;;;;;6.35;3.12;;;;;;;19.37;72.90;100371.56;3565750;81;99103;-85
2022/09/11 16:30:28;;;;;;;6.70;3.20;;;;;;;19.23;73.22;100371.31;3575559;81;98938;-82
2022/09/11 16:35:30;;;;;;;7.12;3.67;;;;;;;19.11;73.56;100373.39;3565513;81;98952;-84
2022/09/11 16:40:34;;;;;;;10.10;3.60;;;;;;;18.96;73.85;100369.36;3576588;81;99105;-85
2022/09/11 16:45:37;;;;;;;7.80;3.50;;;;;;;18.83;74.20;100370.48;3555994;80;99430;-86
2022/09/11 16:50:38;;;;;;;7.12;3.12;;;;;;;18.68;74.55;100365.05;3549321;81;99153;-86
2022/09/11 16:55:38;;;;;;;9.30;4.07;;;;;;;18.54;74.92;100375.14;3569325;81;99023;-86
2022/09/11 17:00:43;;;;;;;6.97;3.40;;;;;;;18.45;75.33;100375.73;3566844;80;98863;-86
2022/09/11 17:05:53;;;;;;;7.90;3.65;;;;;;;18.32;75.69;100375.42;3583516;80;98960;-86
2022/09/11 17:10:58;;;;;;;7.58;3.87;;;;;;;18.22;76.10;100377.79;3583854;80;98919;-86
2022/09/11 17:16:05;;;;;;;9.58;4.50;;;;;;;18.12;76.50;100374.61;3584131;80;98891;-86
2022/09/11 17:21:08;;;;;;;7.33;3.80;;;;;;;17.98;76.78;100374.28;3580587;80;100251;-85
2022/09/11 17:26:13;;;;;;;8.20;4.37;;;;;;;17.87;77.15;100377.89;3577958;80;99057;-86
2022/09/11 17:31:18;;;;;;;8.37;4.50;;;;;;;17.73;77.46;100376.78;3554550;81;98902;-85
2022/09/11 17:36:21;;;;;;;9.23;4.12;;;;;;;17.60;77.73;100377.83;3574951;80;98934;-84
2022/09/11 17:41:21;;;;;;;7.75;3.87;;;;;;;17.45;77.99;100371.70;3579905;82;98882;-85
2022/09/11 17:46:23;;;;;;;7.92;3.92;;;;;;;17.33;78.41;100384.03;3576852;81;98947;-85
2022/09/11 17:51:26;;;;;;;9.23;4.33;;;;;;;17.19;78.97;100385.06;3580556;81;98912;-86
2022/09/11 17:56:29;;;;;;;9.15;4.35;;;;;;;17.09;79.19;100391.58;3571117;81;99310;-85
2022/09/11 18:01:30;;;;;;;11.12;5.40;;;;;;;16.98;79.64;100399.30;3576746;81;98926;-86
2022/09/11 18:06:35;;;;;;;8.25;4.30;;;;;;;16.86;80.02;100399.09;3577427;81;98976;-86
2022/09/11 18:11:37;;;;;;;9.68;3.98;;;;;;;16.74;80.65;100396.89;3561254;81;98935;-87
2022/09/11 18:16:38;;;;;;;9.63;4.62;;;;;;;16.63;80.76;100403.20;3554880;81;98933;-88
2022/09/11 18:21:40;;;;;;;9.55;4.80;;;;;;;16.52;81.37;100405.34;3545214;81;98898;-87
2022/09/11 18:26:41;;;;;;;8.57;3.97;;;;;;;16.39;81.67;100411.24;3560255;80;98860;-87
2022/09/11 18:31:46;;;;;;;10.40;4.75;;;;;;;16.28;81.95;100407.78;3567155;81;98800;-87
2022/09/11 18:36:47;;;;;;;8.40;4.57;;;;;;;16.19;82.32;100416.61;3546167;81;99221;-86
2022/09/11 18:41:51;;;;;;;8.68;4.45;;;;;;;16.06;82.36;100418.36;3528783;81;98979;-87
2022/09/11 18:46:54;;;;;;;9.33;4.25;;;;;;;15.98;83.07;100430.73;3561873;82;99107;-86
2022/09/11 18:51:55;;;;;;;9.58;4.47;;;;;;;15.89;83.62;100425.48;3552419;80;99008;-87
2022/09/11 18:56:56;;;;;;;8.68;4.45;;;;;;;15.82;83.97;100438.06;3560353;80;99137;-87
2022/09/11 19:01:57;;;;;;;10.37;4.47;;;;;;;15.69;84.21;100446.72;3590117;80;98849;-88
2022/09/11 19:06:58;;;;;;;8.30;3.67;;;;;;;15.61;84.30;100452.12;3546462;80;99402;-87
2022/09/11 19:12:01;;;;;;;8.73;4.03;;;;;;;15.51;84.37;100454.39;3534462;81;98952;-87
2022/09/11 19:17:03;;;;;;;8.35;4.12;;;;;;;15.41;84.46;100453.87;3536217;81;98906;-87
2022/09/11 19:22:04;;;;;;;9.37;3.87;;;;;;;15.30;84.66;100455.91;3526661;82;98860;-86
2022/09/11 19:27:05;;;;;;;8.00;3.50;;;;;;;15.18;84.67;100464.14;3534883;81;99007;-87
2022/09/11 19:32:07;;;;;;;9.68;4.33;;;;;;;15.09;84.94;100462.41;3494315;82;98947;-88
2022/09/11 19:37:10;;;;;;;7.00;3.60;;;;;;;15.00;85.13;100467.61;3497629;82;98928;-87
2022/09/11 19:42:11;;;;;;;9.43;4.12;;;;;;;14.94;85.37;100466.45;3511348;81;98848;-87
2022/09/11 19:47:12;;;;;;;9.68;3.77;;;;;;;14.86;85.55;100476.02;3526989;81;99093;-87
2022/09/11 19:52:14;;;;;;;7.43;3.90;;;;;;;14.81;85.57;100477.83;3512576;82;98993;-87
2022/09/11 19:57:15;;;;;;;7.42;3.60;;;;;;;14.75;85.96;100471.71;3527203;82;98960;-87
2022/09/11 20:02:16;;;;;;;7.20;3.50;;;;;;;14.75;86.71;100485.56;3532535;81;98885;-88
2022/09/11 20:07:18;;;;;;;8.23;3.47;;;;;;;14.74;86.91;100477.06;3517513;82;98860;-88
2022/09/11 20:12:20;;;;;;;9.20;3.97;;;;;;;14.72;87.40;100482.23;3510531;81;99005;-88
2022/09/11 20:17:21;;;;;;;7.23;4.00;;;;;;;14.71;87.44;100487.59;3518085;82;99413;-87
2022/09/11 20:22:23;;;;;;;10.03;3.63;;;;;;;14.69;87.86;100487.98;3520084;81;99051;-89
2022/09/11 20:27:25;;;;;;;7.15;3.72;;;;;;;14.69;88.08;100489.37;3526007;82;99156;-89
2022/09/11 20:32:26;;;;;;;7.17;3.75;;;;;;;14.67;88.26;100494.50;3535750;82;98931;-89
2022/09/11 20:37:27;;;;;;;7.33;3.97;;;;;;;14.64;88.32;100497.30;3525900;82;98994;-89
2022/09/11 20:42:29;;;;;;;7.37;3.97;;;;;;;14.60;88.18;100496.55;3524087;82;98941;-84
2022/09/11 20:47:30;;;;;;;11.15;3.72;;;;;;;14.45;88.40;100494.40;3496880;82;99169;-89
2022/09/11 20:52:32;;;;;;;7.73;3.70;;;;;;;14.44;88.41;100498.97;3526537;82;99761;-89
2022/09/11 20:57:33;;;;;;;9.27;4.30;;;;;;;14.38;88.46;100501.35;3517050;81;98956;-88
2022/09/11 21:02:35;;;;;;;8.87;4.23;;;;;;;14.32;88.67;100511.84;3521440;81;108214;-89
2022/09/11 21:07:36;;;;;;;8.17;4.17;;;;;;;14.21;88.81;100510.50;3535269;82;99291;-89
2022/09/11 21:12:37;;;;;;;7.80;3.83;;;;;;;14.16;88.94;100503.15;3542979;82;98998;-89
2022/09/11 21:17:38;;;;;;;7.67;4.10;;;;;;;14.08;89.23;100517.63;3557381;81;99067;-89
2022/09/11 21:22:39;;;;;;;8.83;4.17;;;;;;;14.04;89.62;100514.06;3538136;81;98961;-89
2022/09/11 21:27:40;;;;;;;9.33;4.50;;;;;;;14.03;89.94;100523.56;3552046;81;99176;-89
2022/09/11 21:32:41;;;;;;;9.67;4.37;;;;;;;14.01;89.92;100531.45;3547164;81;98936;-89
2022/09/11 21:37:42;;;;;;;8.10;4.00;;;;;;;13.98;90.08;100528.69;3536981;81;98891;-90
2022/09/11 21:42:44;;;;;;;9.47;4.47;;;;;;;13.97;90.19;100534.84;3557523;80;99474;-90
2022/09/11 21:47:45;;;;;;;9.03;4.23;;;;;;;13.94;90.32;100527.89;3557577;80;99345;-90
2022/09/11 21:52:46;;;;;;;11.50;5.63;;;;;;;13.92;90.48;100531.66;3544618;80;99751;-90
2022/09/11 21:57:47;;;;;;;10.17;4.77;;;;;;;13.86;90.48;100534.05;3550985;81;99188;-91
2022/09/11 22:02:48;;;;;;;8.75;4.72;;;;;;;13.83;90.50;100534.03;3555546;80;99423;-90
2022/09/11 22:07:49;;;;;;;10.15;4.78;;;;;;;13.79;90.50;100530.50;3575942;80;99509;-90
2022/09/11 22:12:50;;;;;;;11.20;5.30;;;;;;;13.75;90.64;100534.66;3552397;80;99232;-90
2022/09/11 22:17:51;;;;;;;13.38;7.25;;;;;;;13.70;90.76;100535.63;3548693;81;99248;-90
2022/09/11 22:22:55;;;;;;;14.35;9.10;;;;;;;13.66;90.78;100530.67;3541078;80;99846;-89
2022/09/11 22:27:55;;;;;;;14.20;8.40;;;;;;;13.60;90.77;100533.64;3540596;80;99070;-90
2022/09/11 22:32:57;;;;;;;14.00;7.40;;;;;;;13.55;90.86;100535.41;3559353;80;99124;-90
2022/09/11 22:37:59;;;;;;;11.22;6.33;;;;;;;13.49;90.96;100540.56;3539625;80;99077;-89
2022/09/11 22:43:00;;;;;;;9.57;5.37;;;;;;;13.45;91.15;100545.28;3531411;81;99093;-89
2022/09/11 22:48:01;;;;;;;11.07;5.27;;;;;;;13.43;91.36;100549.05;3532230;80;98963;-90
2022/09/11 22:53:02;;;;;;;12.30;5.35;;;;;;;13.40;91.45;100540.14;3528602;82;99847;-90
2022/09/11 22:58:04;;;;;;;10.77;5.93;;;;;;;13.37;91.50;100534.61;3540970;81;99228;-90
2022/09/11 23:03:05;;;;;;;9.00;5.03;;;;;;;13.35;91.55;100541.14;3534308;81;99174;-90
2022/09/11 23:08:06;;;;;;;11.90;5.87;;;;;;;13.28;91.56;100539.14;3528020;82;98938;-90
2022/09/11 23:13:07;;;;;;;10.70;5.40;;;;;;;13.26;91.80;100545.66;3537369;81;99609;-90
2022/09/11 23:18:08;;;;;;;11.03;5.25;;;;;;;13.24;91.79;100548.63;3524647;81;99116;-90
2022/09/11 23:23:09;;;;;;;11.43;5.87;;;;;;;13.18;91.84;100539.10;3548876;81;99013;-90
2022/09/11 23:28:11;;;;;;;10.30;4.97;;;;;;;13.17;91.96;100538.33;3551386;82;99318;-90
2022/09/11 23:33:12;;;;;;;10.90;5.92;;;;;;;13.13;91.90;100540.29;3551245;81;98998;-90